< < Back
Terminal Aerodrome Forecast


Current Version              Previous Versions:   1  2  3  4  5  6  7  8  9  

Terminal Aerodrome Forecast

027
FTUS42 KFFC 242300
TAFMCN
TAF
KMCN 242320Z 2500/2524 VRB03KT P6SM SKC
     FM250200 00000KT P6SM SKC
     FM251500 33005KT P6SM SKC=



Latest METAR

593
SAUS80 KWBC 242300
MTRMCN
METAR KMCN 242253Z 00000KT 10SM CLR 17/09 A2998 RMK AO2 SLP152
T01720094


USA.gov is the U.S. government's official web portal to all federal, state and local government web resources and services.